createdAt,value
2022-11-30T00:01:29.023Z,2.03
2022-11-30T00:23:14.749Z,1.79
2022-11-30T00:45:00.443Z,1.84
2022-11-30T01:06:46.136Z,1.69
2022-11-30T01:34:25.500Z,1.59
2022-11-30T01:56:11.543Z,1.54
2022-11-30T02:18:05.989Z,1.31
2022-11-30T02:39:51.750Z,1.34
2022-11-30T03:01:37.693Z,1.53
2022-11-30T03:23:23.560Z,1.43
2022-11-30T03:45:10.680Z,1.51
2022-11-30T04:06:56.392Z,1.42
2022-11-30T04:28:42.802Z,1.47
2022-11-30T04:50:28.692Z,1.42
2022-11-30T05:34:13.095Z,1.81
2022-11-30T05:56:02.276Z,1.74
2022-11-30T06:34:47.556Z,1.91
2022-11-30T06:56:30.988Z,1.73
2022-11-30T07:18:13.927Z,1.73
2022-11-30T07:39:56.863Z,1.66
2022-11-30T08:01:39.982Z,1.73
2022-11-30T08:23:23.132Z,1.76
2022-11-30T08:45:08.447Z,1.89
2022-11-30T09:06:51.481Z,1.98
2022-11-30T09:34:27.007Z,2.22
2022-11-30T09:56:24.700Z,2.08
2022-11-30T10:18:18.321Z,2.45
2022-11-30T10:40:09.764Z,2.43
2022-11-30T11:01:55.614Z,2.64
2022-11-30T11:34:27.228Z,2.71
2022-11-30T11:56:19.564Z,2.77
2022-11-30T12:18:17.218Z,2.48
2022-11-30T12:40:19.245Z,2.48
2022-11-30T13:02:28.031Z,2.39
2022-11-30T13:24:18.343Z,2.18
2022-11-30T13:46:24.401Z,2.11
2022-11-30T14:08:41.859Z,2.14
2022-11-30T14:30:28.269Z,2.25
2022-11-30T14:52:20.510Z,2.04
2022-11-30T15:14:17.956Z,2.23
2022-11-30T15:36:32.464Z,2.09
2022-11-30T15:58:28.464Z,1.97
2022-11-30T16:20:17.032Z,2.01
2022-11-30T16:42:03.113Z,1.92
2022-11-30T17:03:54.069Z,2.00
2022-11-30T17:25:39.897Z,2.06
2022-11-30T17:47:26.656Z,2.22
2022-11-30T18:09:12.808Z,2.25
2022-11-30T18:30:59.143Z,2.36
2022-11-30T18:52:45.014Z,2.34
2022-11-30T19:14:29.241Z,2.50
2022-11-30T19:36:19.216Z,2.35
2022-11-30T19:58:06.486Z,2.30
2022-11-30T20:19:52.613Z,2.48
2022-11-30T20:41:38.977Z,2.40
2022-11-30T21:03:24.829Z,2.44
2022-11-30T21:25:09.692Z,2.26
2022-11-30T21:46:55.464Z,2.05
2022-11-30T22:08:41.853Z,2.11
2022-11-30T22:30:27.554Z,2.05
2022-11-30T22:52:13.604Z,1.98
2022-11-30T23:13:59.831Z,2.16
2022-11-30T23:35:46.548Z,2.18
2022-11-30T23:57:32.386Z,2.04
